Time;durP1;ratioP1;P1;durP2;ratioP2;P2;SDS_P1;SDS_P2;PMS_P1;PMS_P2;Temp;Humidity;BMP_temperature;BMP_pressure;BME280_temperature;BME280_humidity;BME280_pressure;Samples;Min_cycle;Max_cycle;Signal;HPM_P1;HPM_P2
2023/11/25 00:01:07;;;;;;;0.73;0.73;;;;;;;1.39;100.00;98707.91;5096349;27;20405;-58
2023/11/25 00:03:34;;;;;;;0.70;0.70;;;;;;;1.38;100.00;98716.06;5093418;28;20050;-58
2023/11/25 00:06:02;;;;;;;0.70;0.70;;;;;;;1.38;100.00;98722.16;5084974;27;20131;-58
2023/11/25 00:08:29;;;;;;;0.50;0.50;;;;;;;1.35;100.00;98727.81;5088672;28;20146;-58
2023/11/25 00:10:55;;;;;;;0.50;0.50;;;;;;;1.39;100.00;98738.81;5093696;28;20036;-58
2023/11/25 00:13:22;;;;;;;0.55;0.55;;;;;;;1.37;100.00;98731.06;5077054;28;20456;-58
2023/11/25 00:15:49;;;;;;;0.60;0.60;;;;;;;1.41;100.00;98742.06;5098193;27;20058;-58
2023/11/25 00:18:19;;;;;;;0.50;0.50;;;;;;;1.36;100.00;98747.94;5092906;28;20092;-58
2023/11/25 00:20:47;;;;;;;0.70;0.70;;;;;;;1.37;100.00;98741.63;5097671;28;20558;-58
2023/11/25 00:23:14;;;;;;;0.70;0.70;;;;;;;1.35;100.00;98746.31;5087611;28;20083;-59
2023/11/25 00:25:42;;;;;;;0.70;0.70;;;;;;;1.27;100.00;98746.44;5096501;28;20036;-58
2023/11/25 00:28:10;;;;;;;0.52;0.52;;;;;;;1.20;100.00;98750.88;5090505;28;20035;-58
2023/11/25 00:30:38;;;;;;;0.70;0.70;;;;;;;1.21;100.00;98750.69;5095421;27;20479;-58
2023/11/25 00:33:05;;;;;;;0.57;0.57;;;;;;;1.14;100.00;98759.56;5087284;28;20810;-59
2023/11/25 00:35:34;;;;;;;0.70;0.70;;;;;;;1.15;100.00;98755.91;5096402;27;20535;-59
2023/11/25 00:38:01;;;;;;;0.60;0.60;;;;;;;1.10;100.00;98756.50;5088672;28;20763;-58
2023/11/25 00:40:28;;;;;;;0.70;0.70;;;;;;;1.10;100.00;98763.59;5090128;27;20048;-58
2023/11/25 00:42:55;;;;;;;0.70;0.70;;;;;;;1.05;100.00;98758.91;5092655;28;20516;-58
2023/11/25 00:45:26;;;;;;;0.70;0.70;;;;;;;1.06;100.00;98761.34;5093315;27;20052;-58
2023/11/25 00:47:56;;;;;;;0.50;0.50;;;;;;;1.00;100.00;98772.69;5087039;28;20043;-58
2023/11/25 00:50:24;;;;;;;0.80;0.80;;;;;;;0.98;100.00;98764.13;5090568;28;20164;-58
2023/11/25 00:52:54;;;;;;;0.80;0.80;;;;;;;0.97;100.00;98767.75;5111435;27;20197;-58
2023/11/25 00:55:21;;;;;;;0.70;0.70;;;;;;;0.88;100.00;98770.75;5107449;27;20081;-58
2023/11/25 00:57:48;;;;;;;0.55;0.55;;;;;;;0.90;100.00;98771.38;5086422;28;20044;-63
2023/11/25 01:00:16;;;;;;;0.65;0.65;;;;;;;0.84;100.00;98775.59;5097253;28;20147;-58
2023/11/25 01:02:44;;;;;;;0.70;0.70;;;;;;;0.85;100.00;98771.97;5093920;27;20059;-58
2023/11/25 01:05:11;;;;;;;0.75;0.75;;;;;;;0.75;100.00;98774.09;5107615;27;20187;-58
2023/11/25 01:07:38;;;;;;;0.70;0.70;;;;;;;0.79;100.00;98780.63;5090287;28;20184;-58
2023/11/25 01:10:07;;;;;;;0.70;0.70;;;;;;;0.91;100.00;98786.22;5081072;28;20415;-58
2023/11/25 01:12:35;;;;;;;0.60;0.60;;;;;;;0.95;100.00;98796.19;5088063;28;20494;-59
2023/11/25 01:15:03;;;;;;;0.68;0.68;;;;;;;0.99;100.00;98797.44;5090997;28;20088;-59
2023/11/25 01:17:31;;;;;;;0.60;0.60;;;;;;;1.01;100.00;98800.69;5095442;27;20055;-58
2023/11/25 01:19:59;;;;;;;0.80;0.80;;;;;;;1.06;100.00;98803.56;5084421;28;20044;-59
2023/11/25 01:22:26;;;;;;;0.80;0.80;;;;;;;1.05;100.00;98795.88;5083610;28;20044;-58
2023/11/25 01:24:53;;;;;;;0.65;0.65;;;;;;;1.14;100.00;98809.72;5097711;28;20405;-59
2023/11/25 01:27:23;;;;;;;0.70;0.70;;;;;;;1.08;100.00;98825.31;5090884;28;20048;-59
2023/11/25 01:29:50;;;;;;;0.50;0.50;;;;;;;1.14;100.00;98820.28;5094343;28;20052;-59
2023/11/25 01:32:17;;;;;;;0.60;0.60;;;;;;;1.18;100.00;98810.97;5098302;28;20328;-59
2023/11/25 01:34:44;;;;;;;0.70;0.70;;;;;;;1.18;100.00;98832.91;5094673;28;20094;-59
2023/11/25 01:37:15;;;;;;;0.60;0.60;;;;;;;1.20;100.00;98840.63;5081362;28;20182;-59
2023/11/25 01:39:42;;;;;;;0.75;0.75;;;;;;;1.22;100.00;98838.63;5085440;27;20201;-59
2023/11/25 01:42:09;;;;;;;0.60;0.60;;;;;;;1.23;100.00;98832.34;5097467;27;20043;-59
2023/11/25 01:44:38;;;;;;;0.77;0.77;;;;;;;1.17;100.00;98841.00;5101384;27;20544;-59
2023/11/25 01:47:05;;;;;;;0.73;0.73;;;;;;;1.15;100.00;98843.03;5102508;27;20042;-59
2023/11/25 01:49:32;;;;;;;0.80;0.80;;;;;;;1.20;100.00;98835.34;5092589;27;20066;-59
2023/11/25 01:51:59;;;;;;;0.60;0.60;;;;;;;1.28;100.00;98837.88;5089966;28;20035;-59
2023/11/25 01:54:27;;;;;;;0.70;0.70;;;;;;;1.21;100.00;98837.00;5102316;27;20097;-59
2023/11/25 01:56:56;;;;;;;0.90;0.90;;;;;;;1.15;100.00;98840.38;5096346;27;20084;-59
2023/11/25 01:59:23;;;;;;;0.80;0.80;;;;;;;1.22;100.00;98851.81;5094514;27;20139;-58
2023/11/25 02:01:51;;;;;;;0.70;0.70;;;;;;;1.21;100.00;98852.84;5097531;27;20055;-59
2023/11/25 02:04:19;;;;;;;0.70;0.70;;;;;;;1.22;100.00;98860.56;5097307;27;20160;-58
2023/11/25 02:06:46;;;;;;;0.60;0.60;;;;;;;1.25;100.00;98859.38;5102180;27;20808;-59
2023/11/25 02:09:13;;;;;;;0.70;0.70;;;;;;;1.25;100.00;98859.38;5093019;27;20398;-59
2023/11/25 02:11:56;;;;;;;0.80;0.80;;;;;;;1.31;100.00;98866.50;5077464;28;20123;-59
2023/11/25 02:14:24;;;;;;;0.70;0.70;;;;;;;1.31;100.00;98861.25;5093584;28;20044;-58
2023/11/25 02:16:53;;;;;;;0.70;0.70;;;;;;;1.31;100.00;98871.78;5104031;27;20178;-58
2023/11/25 02:19:21;;;;;;;0.70;0.70;;;;;;;1.21;100.00;98863.41;5095875;27;20044;-59
2023/11/25 02:21:55;;;;;;;0.60;0.60;;;;;;;1.24;100.00;98860.38;5092458;28;20071;-59
2023/11/25 02:24:26;;;;;;;0.70;0.70;;;;;;;1.10;100.00;98866.53;5093187;28;20112;-58
2023/11/25 02:26:58;;;;;;;0.80;0.80;;;;;;;1.09;100.00;98860.44;5094970;28;20749;-58
2023/11/25 02:29:25;;;;;;;0.85;0.85;;;;;;;1.08;100.00;98864.91;5091742;28;20048;-58
2023/11/25 02:31:55;;;;;;;0.68;0.68;;;;;;;0.89;100.00;98867.38;5097697;28;20074;-58
2023/11/25 02:34:23;;;;;;;;;;;;;;;0.76;100.00;98865.44;5104155;27;20129;-59
2023/11/25 02:36:50;;;;;;;0.60;0.60;;;;;;;0.76;100.00;98854.88;5099609;28;19923;-58
2023/11/25 02:39:18;;;;;;;0.70;0.70;;;;;;;0.76;100.00;98853.03;5101638;27;20051;-59
2023/11/25 02:41:49;;;;;;;0.65;0.65;;;;;;;0.89;100.00;98855.00;5102178;27;20054;-58
2023/11/25 02:44:18;;;;;;;0.65;0.65;;;;;;;0.90;100.00;98855.81;5095139;28;20391;-58
2023/11/25 02:46:45;;;;;;;0.70;0.70;;;;;;;1.02;100.00;98865.69;5095433;27;20314;-58
2023/11/25 02:49:12;;;;;;;0.80;0.80;;;;;;;1.06;100.00;98864.28;5094279;27;20146;-58
2023/11/25 02:51:39;;;;;;;0.60;0.60;;;;;;;1.07;100.00;98863.28;5095919;28;20071;-58
2023/11/25 02:54:06;;;;;;;0.60;0.60;;;;;;;1.19;100.00;98860.94;5097420;28;20122;-59
2023/11/25 02:56:35;;;;;;;0.70;0.70;;;;;;;1.24;100.00;98868.28;5099146;28;20044;-58
2023/11/25 02:59:03;;;;;;;0.50;0.50;;;;;;;1.27;100.00;98870.53;5078197;28;20040;-58
2023/11/25 03:01:30;;;;;;;0.50;0.50;;;;;;;1.31;100.00;98873.63;5091421;27;20047;-58
2023/11/25 03:04:01;;;;;;;0.63;0.63;;;;;;;1.23;100.00;98859.56;5098933;27;20365;-58
2023/11/25 03:06:30;;;;;;;0.60;0.60;;;;;;;1.16;100.00;98858.69;5088414;27;20050;-58
2023/11/25 03:08:58;;;;;;;0.60;0.60;;;;;;;1.24;100.00;98852.44;5088893;28;20047;-58
2023/11/25 03:11:26;;;;;;;0.50;0.50;;;;;;;1.08;100.00;98845.63;5091169;28;20071;-58
2023/11/25 03:13:53;;;;;;;0.80;0.80;;;;;;;1.12;100.00;98849.50;5094031;27;20047;-58
2023/11/25 03:16:24;;;;;;;0.60;0.60;;;;;;;1.13;100.00;98861.72;5107053;27;20044;-59
2023/11/25 03:18:51;;;;;;;0.60;0.60;;;;;;;1.11;100.00;98865.53;5087969;28;20036;-58
2023/11/25 03:21:19;;;;;;;0.80;0.80;;;;;;;1.03;100.00;98867.31;5093784;28;20055;-58
2023/11/25 03:23:47;;;;;;;0.73;0.73;;;;;;;1.07;100.00;98865.09;5095426;28;20079;-59
2023/11/25 03:26:14;;;;;;;0.60;0.60;;;;;;;1.13;100.00;98864.34;5101661;28;20046;-58
2023/11/25 03:28:41;;;;;;;0.70;0.70;;;;;;;1.14;100.00;98871.25;5095821;28;20067;-59
2023/11/25 03:31:08;;;;;;;0.50;0.50;;;;;;;1.20;100.00;98872.31;5097230;28;20450;-58
2023/11/25 03:33:37;;;;;;;0.77;0.77;;;;;;;1.20;100.00;98877.59;5091622;28;20493;-59
2023/11/25 03:36:05;;;;;;;0.73;0.73;;;;;;;1.19;100.00;98868.03;5093519;27;20046;-59
2023/11/25 03:38:32;;;;;;;0.70;0.70;;;;;;;1.15;100.00;98869.41;5090894;28;20417;-58
2023/11/25 03:40:59;;;;;;;0.60;0.60;;;;;;;1.18;100.00;98869.06;5098117;28;20071;-58
2023/11/25 03:43:26;;;;;;;0.73;0.73;;;;;;;1.16;100.00;98868.44;5098041;28;20051;-59
2023/11/25 03:46:00;;;;;;;0.50;0.50;;;;;;;1.18;100.00;98874.34;5090105;28;20490;-59
2023/11/25 03:48:27;;;;;;;0.60;0.60;;;;;;;1.07;100.00;98873.84;5091545;28;20052;-59
2023/11/25 03:50:55;;;;;;;0.60;0.60;;;;;;;1.14;100.00;98873.06;5073941;28;20048;-59
2023/11/25 03:53:22;;;;;;;0.70;0.70;;;;;;;1.10;100.00;98866.53;5094571;28;20135;-59
2023/11/25 03:55:49;;;;;;;0.70;0.70;;;;;;;1.01;100.00;98866.66;5091729;28;20081;-59
2023/11/25 03:58:16;;;;;;;0.60;0.60;;;;;;;1.00;100.00;98866.84;5109772;27;20288;-58
2023/11/25 04:00:43;;;;;;;0.52;0.52;;;;;;;1.00;100.00;98872.97;5087926;28;20327;-59
2023/11/25 04:03:10;;;;;;;0.60;0.60;;;;;;;0.98;100.00;98885.53;5101761;27;20040;-59
2023/11/25 04:05:38;;;;;;;0.70;0.70;;;;;;;0.93;100.00;98885.28;5091977;27;20052;-59
2023/11/25 04:08:06;;;;;;;0.50;0.50;;;;;;;0.92;100.00;98885.47;5094752;28;20044;-59
2023/11/25 04:10:33;;;;;;;0.52;0.52;;;;;;;0.97;100.00;98881.25;5093487;28;20073;-59
2023/11/25 04:13:00;;;;;;;0.50;0.50;;;;;;;0.96;100.00;98876.97;5090701;27;20493;-58
2023/11/25 04:15:28;;;;;;;0.63;0.63;;;;;;;0.85;100.00;98880.13;5093845;27;20124;-59
2023/11/25 04:17:55;;;;;;;0.73;0.73;;;;;;;0.76;100.00;98887.34;5092382;27;20490;-59
2023/11/25 04:20:27;;;;;;;0.63;0.63;;;;;;;0.64;100.00;98879.09;5089306;27;20047;-59
2023/11/25 04:22:55;;;;;;;0.60;0.60;;;;;;;0.66;100.00;98883.38;5089208;28;20082;-59
2023/11/25 04:25:24;;;;;;;0.50;0.50;;;;;;;0.61;100.00;98868.94;5095211;28;20079;-59
2023/11/25 04:27:51;;;;;;;0.70;0.70;;;;;;;0.72;100.00;98872.06;5091476;28;20135;-59
2023/11/25 04:30:18;;;;;;;0.70;0.70;;;;;;;0.80;100.00;98874.56;5097922;27;20046;-59
2023/11/25 04:32:46;;;;;;;0.73;0.73;;;;;;;1.01;100.00;98865.88;5088921;28;20044;-59
2023/11/25 04:35:14;;;;;;;0.60;0.60;;;;;;;0.98;100.00;98869.69;5090182;28;20048;-59
2023/11/25 04:37:43;;;;;;;0.63;0.63;;;;;;;0.93;100.00;98864.16;5094437;28;20687;-59
2023/11/25 04:40:12;;;;;;;0.63;0.63;;;;;;;0.91;100.00;98865.38;5089994;28;20044;-59
2023/11/25 04:42:41;;;;;;;0.80;0.80;;;;;;;0.78;100.00;98860.78;5093239;28;20047;-59
2023/11/25 04:45:15;;;;;;;0.50;0.50;;;;;;;0.70;100.00;98860.88;5097152;27;20760;-59
2023/11/25 04:47:44;;;;;;;0.65;0.65;;;;;;;0.69;100.00;98868.00;5088561;28;20040;-59
2023/11/25 04:50:11;;;;;;;0.60;0.60;;;;;;;0.72;100.00;98870.25;5095676;28;20039;-59
2023/11/25 04:52:38;;;;;;;0.70;0.70;;;;;;;0.70;100.00;98868.78;5109856;27;20302;-59
2023/11/25 04:55:08;;;;;;;0.60;0.60;;;;;;;0.70;100.00;98864.38;5082548;28;20032;-59
2023/11/25 04:57:35;;;;;;;0.50;0.50;;;;;;;0.66;100.00;98863.09;5092729;27;20126;-59
2023/11/25 05:00:08;;;;;;;0.52;0.52;;;;;;;0.71;100.00;98862.53;5086037;28;20043;-59
2023/11/25 05:02:35;;;;;;;0.70;0.70;;;;;;;0.84;100.00;98858.19;5084289;28;20132;-59
2023/11/25 05:05:03;;;;;;;0.77;0.77;;;;;;;0.80;100.00;98858.75;5093526;28;20138;-59
2023/11/25 05:07:30;;;;;;;0.63;0.63;;;;;;;0.80;100.00;98866.66;5093778;28;20167;-58
2023/11/25 05:09:57;;;;;;;0.70;0.70;;;;;;;0.73;100.00;98865.81;5089711;27;20047;-59
2023/11/25 05:12:24;;;;;;;0.60;0.60;;;;;;;0.58;100.00;98871.94;5103464;27;20067;-59
2023/11/25 05:14:51;;;;;;;0.80;0.80;;;;;;;0.73;100.00;98858.72;5099002;28;20165;-59
2023/11/25 05:17:20;;;;;;;0.55;0.55;;;;;;;0.81;100.00;98868.31;5093696;28;20067;-59
2023/11/25 05:19:47;;;;;;;0.57;0.57;;;;;;;0.83;100.00;98866.31;5093155;28;20083;-59
2023/11/25 05:22:14;;;;;;;0.60;0.60;;;;;;;0.65;100.00;98866.75;5096161;28;20071;-59
2023/11/25 05:24:41;;;;;;;0.73;0.73;;;;;;;0.78;100.00;98858.16;5086233;28;20428;-59
2023/11/25 05:27:08;;;;;;;0.70;0.70;;;;;;;0.69;100.00;98854.00;5096389;28;20097;-59
2023/11/25 05:29:35;;;;;;;0.73;0.73;;;;;;;0.88;100.00;98856.00;5086198;28;20066;-59
2023/11/25 05:32:03;;;;;;;0.63;0.63;;;;;;;0.85;100.00;98859.03;5092859;28;20486;-59
2023/11/25 05:34:32;;;;;;;0.70;0.70;;;;;;;0.80;100.00;98858.75;5086613;28;20143;-59
2023/11/25 05:37:00;;;;;;;0.70;0.70;;;;;;;0.82;100.00;98846.19;5090984;28;20497;-59
2023/11/25 05:39:28;;;;;;;0.52;0.52;;;;;;;0.91;100.00;98838.97;5090315;28;20044;-58
2023/11/25 05:41:55;;;;;;;0.73;0.73;;;;;;;1.05;100.00;98849.47;5095328;28;20039;-59
2023/11/25 05:44:25;;;;;;;0.50;0.50;;;;;;;1.06;100.00;98858.19;5098642;28;20040;-58
2023/11/25 05:46:54;;;;;;;0.57;0.57;;;;;;;1.06;100.00;98861.63;5088432;28;20066;-59
2023/11/25 05:49:22;;;;;;;0.60;0.60;;;;;;;1.11;100.00;98862.91;5093993;28;20087;-59
2023/11/25 05:51:51;;;;;;;0.60;0.60;;;;;;;1.07;100.00;98868.56;5094247;28;20043;-59
2023/11/25 05:54:18;;;;;;;0.60;0.60;;;;;;;1.11;100.00;98865.53;5098952;28;20417;-59
2023/11/25 05:56:45;;;;;;;0.60;0.60;;;;;;;1.09;100.00;98852.53;5096760;28;20036;-59
2023/11/25 05:59:12;;;;;;;0.63;0.63;;;;;;;1.04;100.00;98845.16;5086779;28;20120;-59
2023/11/25 06:01:39;;;;;;;0.55;0.55;;;;;;;1.04;100.00;98841.72;5092533;28;20490;-58
2023/11/25 06:04:07;;;;;;;0.60;0.60;;;;;;;1.03;100.00;98845.38;5095104;28;20126;-59
2023/11/25 06:06:34;;;;;;;0.60;0.60;;;;;;;1.01;100.00;98850.84;5092874;28;20040;-59
2023/11/25 06:09:05;;;;;;;0.57;0.57;;;;;;;1.06;100.00;98858.19;5090942;28;20091;-59
2023/11/25 06:11:33;;;;;;;0.60;0.60;;;;;;;0.98;100.00;98858.34;5091845;28;20044;-59
2023/11/25 06:14:00;;;;;;;0.60;0.60;;;;;;;0.96;100.00;98845.31;5095929;28;20071;-59
2023/11/25 06:16:29;;;;;;;0.70;0.70;;;;;;;1.04;100.00;98849.66;5094427;28;20124;-59
2023/11/25 06:18:56;;;;;;;0.60;0.60;;;;;;;1.05;100.00;98852.09;5092172;28;20131;-58
2023/11/25 06:21:23;;;;;;;0.63;0.63;;;;;;;1.03;100.00;98838.28;5095704;28;20052;-58
2023/11/25 06:23:50;;;;;;;0.88;0.88;;;;;;;1.18;100.00;98843.47;5100371;27;20406;-59
2023/11/25 06:26:19;;;;;;;0.68;0.68;;;;;;;1.24;100.00;98842.69;5101647;27;20055;-58
2023/11/25 06:28:48;;;;;;;0.57;0.57;;;;;;;1.24;100.00;98837.41;5104903;27;20047;-59
2023/11/25 06:31:15;;;;;;;0.60;0.60;;;;;;;1.54;100.00;98841.69;5094388;28;20135;-59
2023/11/25 06:33:42;;;;;;;0.70;0.70;;;;;;;1.35;100.00;98848.44;5092262;28;20482;-58
2023/11/25 06:36:10;;;;;;;0.70;0.70;;;;;;;1.37;100.00;98857.81;5096113;27;20051;-58
2023/11/25 06:38:37;;;;;;;0.50;0.50;;;;;;;1.55;100.00;98844.16;5098358;28;20097;-58
2023/11/25 06:41:05;;;;;;;0.60;0.60;;;;;;;1.70;100.00;98846.69;5103570;27;20388;-58
2023/11/25 06:43:33;;;;;;;0.70;0.70;;;;;;;1.74;100.00;98847.91;5092936;28;20043;-58
2023/11/25 06:46:00;;;;;;;0.60;0.60;;;;;;;1.58;100.00;98842.94;5089458;28;20545;-59
2023/11/25 06:48:27;;;;;;;0.70;0.70;;;;;;;1.55;100.00;98849.44;5093836;28;20054;-58
2023/11/25 06:50:54;;;;;;;0.60;0.60;;;;;;;1.67;100.00;98857.63;5096720;28;20063;-58
2023/11/25 06:53:22;;;;;;;0.80;0.80;;;;;;;1.67;100.00;98852.31;5091953;28;20047;-58
2023/11/25 06:55:49;;;;;;;0.70;0.70;;;;;;;1.67;100.00;98860.25;5091044;28;20043;-59
2023/11/25 06:58:18;;;;;;;0.63;0.63;;;;;;;1.68;100.00;98859.25;5101463;28;20540;-59
2023/11/25 07:00:46;;;;;;;0.60;0.60;;;;;;;1.70;100.00;98858.06;5087097;28;20071;-59
2023/11/25 07:03:13;;;;;;;0.60;0.60;;;;;;;1.63;100.00;98859.03;5113759;27;20064;-58
2023/11/25 07:05:40;;;;;;;0.70;0.70;;;;;;;1.60;100.00;98856.75;5098709;28;20132;-58
2023/11/25 07:08:08;;;;;;;0.60;0.60;;;;;;;1.65;100.00;98859.66;5095666;28;20051;-58
2023/11/25 07:10:35;;;;;;;0.50;0.50;;;;;;;1.62;100.00;98865.31;5099475;27;20044;-58
2023/11/25 07:13:02;;;;;;;0.70;0.70;;;;;;;1.69;100.00;98855.59;5096216;27;20043;-58
2023/11/25 07:15:30;;;;;;;0.80;0.80;;;;;;;1.67;100.00;98855.81;5091961;28;20389;-58
2023/11/25 07:17:58;;;;;;;0.68;0.68;;;;;;;1.63;100.00;98862.47;5091594;28;20048;-58
2023/11/25 07:20:25;;;;;;;0.70;0.70;;;;;;;1.73;100.00;98862.13;5090881;28;20054;-58
2023/11/25 07:22:52;;;;;;;0.63;0.63;;;;;;;1.77;100.00;98858.06;5096635;28;20039;-58
2023/11/25 07:25:19;;;;;;;0.60;0.60;;;;;;;1.75;100.00;98862.75;5099429;28;20428;-59
2023/11/25 07:27:47;;;;;;;0.60;0.60;;;;;;;1.84;100.00;98864.22;5098950;28;20050;-60
2023/11/25 07:30:15;;;;;;;0.60;0.60;;;;;;;1.85;100.00;98871.16;5092909;28;20052;-60
2023/11/25 07:32:43;;;;;;;0.75;0.75;;;;;;;1.94;100.00;98856.75;5090779;28;20433;-59
2023/11/25 07:35:12;;;;;;;0.40;0.40;;;;;;;1.89;100.00;98867.09;5090306;28;20062;-60
2023/11/25 07:37:39;;;;;;;0.45;0.45;;;;;;;1.97;100.00;98862.66;5093277;28;20031;-57
2023/11/25 07:40:09;;;;;;;0.68;0.68;;;;;;;2.01;100.00;98858.63;5085582;28;20042;-59
2023/11/25 07:42:37;;;;;;;0.70;0.70;;;;;;;2.18;100.00;98854.63;5094359;28;20755;-60
2023/11/25 07:45:08;;;;;;;0.57;0.57;;;;;;;2.32;100.00;98851.03;5092889;27;20075;-58
2023/11/25 07:47:35;;;;;;;0.50;0.50;;;;;;;2.27;100.00;98856.09;5092344;28;20040;-58
2023/11/25 07:50:02;;;;;;;0.52;0.52;;;;;;;2.33;100.00;98857.94;5096436;28;20071;-60
2023/11/25 07:52:31;;;;;;;0.55;0.55;;;;;;;2.39;100.00;98861.63;5096070;28;20194;-60
2023/11/25 07:54:58;;;;;;;0.60;0.60;;;;;;;2.38;100.00;98860.00;5093831;28;20158;-58
2023/11/25 07:57:26;;;;;;;0.40;0.40;;;;;;;2.45;100.00;98855.56;5097757;27;20127;-58
2023/11/25 07:59:53;;;;;;;0.60;0.60;;;;;;;2.37;100.00;98867.13;5084486;28;20057;-58
2023/11/25 08:02:20;;;;;;;0.40;0.40;;;;;;;2.48;100.00;98864.91;5094083;28;20502;-60
2023/11/25 08:04:47;;;;;;;0.60;0.60;;;;;;;2.53;100.00;98865.13;5095374;28;20100;-58
2023/11/25 08:07:14;;;;;;;0.60;0.60;;;;;;;2.68;100.00;98873.72;5094785;28;20658;-58
2023/11/25 08:09:43;;;;;;;0.40;0.40;;;;;;;2.76;100.00;98884.13;5094559;27;20040;-58
2023/11/25 08:12:10;;;;;;;0.50;0.50;;;;;;;2.69;100.00;98896.50;5094553;28;20042;-58
2023/11/25 08:14:37;;;;;;;0.60;0.60;;;;;;;2.69;100.00;98893.88;5095149;27;20040;-58
2023/11/25 08:17:04;;;;;;;0.57;0.57;;;;;;;2.50;100.00;98897.28;5095480;27;20739;-58
2023/11/25 08:19:31;;;;;;;0.50;0.50;;;;;;;2.48;100.00;98904.59;5099767;28;20086;-58
2023/11/25 08:21:58;;;;;;;0.50;0.50;;;;;;;2.27;100.00;98911.63;5092915;28;20048;-60
2023/11/25 08:24:26;;;;;;;0.50;0.50;;;;;;;1.90;100.00;98911.03;5099127;28;20509;-58
2023/11/25 08:26:56;;;;;;;0.60;0.60;;;;;;;1.45;100.00;98918.44;5094342;28;20059;-58
2023/11/25 08:29:23;;;;;;;0.60;0.60;;;;;;;1.34;100.00;98916.28;5090550;27;20071;-58
2023/11/25 08:31:51;;;;;;;0.80;0.80;;;;;;;1.38;100.00;98911.47;5095666;28;21991;-59
2023/11/25 08:34:18;;;;;;;0.60;0.60;;;;;;;1.54;100.00;98905.09;5091865;27;20055;-59
2023/11/25 08:36:52;;;;;;;0.40;0.40;;;;;;;1.68;100.00;98893.59;5097428;28;20514;-59
2023/11/25 08:39:22;;;;;;;0.50;0.50;;;;;;;1.43;100.00;98887.94;5096757;27;20146;-58
2023/11/25 08:41:51;;;;;;;0.50;0.50;;;;;;;1.69;100.00;98884.66;5086937;28;20050;-59
2023/11/25 08:44:19;;;;;;;0.60;0.60;;;;;;;1.72;100.00;98873.69;5095730;27;20082;-59
2023/11/25 08:46:46;;;;;;;0.60;0.60;;;;;;;1.76;100.00;98869.66;5095881;28;20055;-58
2023/11/25 08:49:14;;;;;;;0.60;0.60;;;;;;;1.93;100.00;98873.63;5088072;28;20048;-59
2023/11/25 08:51:45;;;;;;;0.68;0.68;;;;;;;1.91;100.00;98870.38;5091077;28;20044;-59
2023/11/25 08:54:13;;;;;;;0.60;0.60;;;;;;;1.91;100.00;98866.91;5088012;28;20132;-58
2023/11/25 08:56:41;;;;;;;0.68;0.68;;;;;;;2.07;100.00;98868.41;5093563;28;20056;-59
2023/11/25 08:59:08;;;;;;;0.50;0.50;;;;;;;2.29;100.00;98858.53;5093788;28;20174;-58
2023/11/25 09:01:39;;;;;;;0.63;0.63;;;;;;;2.54;100.00;98864.91;5094882;28;20055;-59
2023/11/25 09:04:07;;;;;;;0.50;0.50;;;;;;;2.74;100.00;98857.03;5093041;28;20112;-58
2023/11/25 09:06:36;;;;;;;0.65;0.65;;;;;;;3.10;100.00;98852.41;5095427;27;20049;-58
2023/11/25 09:09:04;;;;;;;0.50;0.50;;;;;;;3.64;100.00;98854.81;5092071;28;20059;-58
2023/11/25 09:11:31;;;;;;;0.65;0.65;;;;;;;4.97;100.00;98854.25;5087430;28;20054;-59
2023/11/25 09:13:59;;;;;;;0.40;0.40;;;;;;;4.19;100.00;98850.97;5097527;28;20047;-58
2023/11/25 09:16:26;;;;;;;0.50;0.50;;;;;;;4.04;100.00;98844.13;5089588;28;20501;-58
2023/11/25 09:18:54;;;;;;;0.35;0.35;;;;;;;3.96;100.00;98846.97;5096335;27;20083;-58
2023/11/25 09:21:21;;;;;;;0.40;0.40;;;;;;;3.77;100.00;98848.69;5095305;28;20130;-58
2023/11/25 09:23:49;;;;;;;0.40;0.40;;;;;;;3.58;100.00;98865.44;5094950;28;20048;-58
2023/11/25 09:26:16;;;;;;;0.50;0.50;;;;;;;3.45;100.00;98858.31;5093514;28;20043;-58
2023/11/25 09:28:43;;;;;;;0.50;0.50;;;;;;;3.35;100.00;98860.56;5096847;28;20543;-58
2023/11/25 09:31:10;;;;;;;0.32;0.32;;;;;;;3.38;100.00;98860.94;5089232;28;20101;-58
2023/11/25 09:33:37;;;;;;;0.40;0.40;;;;;;;3.26;100.00;98867.06;5094446;28;20520;-58
2023/11/25 09:36:07;;;;;;;0.50;0.50;;;;;;;3.43;100.00;98863.00;5091360;28;20067;-58
2023/11/25 09:38:34;;;;;;;0.50;0.50;;;;;;;3.53;100.00;98862.59;5095722;28;20532;-58
2023/11/25 09:41:00;;;;;;;0.40;0.40;;;;;;;3.58;100.00;98868.06;5097751;28;20765;-58
2023/11/25 09:43:27;;;;;;;0.43;0.43;;;;;;;3.50;100.00;98869.09;5095781;28;20050;-58
2023/11/25 09:45:54;;;;;;;0.47;0.47;;;;;;;3.44;100.00;98867.25;5088902;28;20044;-58
2023/11/25 09:48:21;;;;;;;0.52;0.52;;;;;;;3.70;100.00;98866.44;5096002;28;20609;-59
2023/11/25 09:50:49;;;;;;;0.50;0.50;;;;;;;3.93;100.00;98863.31;5090489;28;20031;-59
2023/11/25 09:53:20;;;;;;;0.40;0.40;;;;;;;3.67;100.00;98865.00;5085669;28;20136;-59
2023/11/25 09:55:51;;;;;;;0.40;0.40;;;;;;;3.59;100.00;98867.84;5091465;28;20050;-64
2023/11/25 09:58:21;;;;;;;0.40;0.40;;;;;;;3.44;100.00;98869.91;5093248;28;20058;-60
2023/11/25 10:00:49;;;;;;;0.40;0.40;;;;;;;3.44;100.00;98865.44;5100891;28;20048;-60
2023/11/25 10:03:16;;;;;;;0.60;0.60;;;;;;;3.56;100.00;98856.84;5090538;28;20059;-59
2023/11/25 10:05:43;;;;;;;0.50;0.50;;;;;;;3.54;100.00;98858.91;5095864;27;20361;-59
2023/11/25 10:08:10;;;;;;;0.43;0.43;;;;;;;3.71;100.00;98849.50;5097208;27;21156;-60
2023/11/25 10:10:40;;;;;;;0.57;0.57;;;;;;;4.05;100.00;98860.84;5100457;28;20035;-59
2023/11/25 10:13:14;;;;;;;0.50;0.50;;;;;;;4.12;100.00;98861.63;5096755;28;20477;-60
2023/11/25 10:15:45;;;;;;;0.47;0.47;;;;;;;4.00;100.00;98847.41;5096906;27;20065;-59
2023/11/25 10:18:12;;;;;;;0.47;0.47;;;;;;;3.76;100.00;98846.22;5097173;28;20050;-59
2023/11/25 10:20:42;;;;;;;0.40;0.40;;;;;;;3.84;100.00;98851.28;5097313;28;20043;-59
2023/11/25 10:23:09;;;;;;;0.40;0.40;;;;;;;3.77;100.00;98847.84;5099230;27;20114;-59
2023/11/25 10:25:36;;;;;;;0.40;0.40;;;;;;;3.78;100.00;98845.00;5090583;28;20047;-59
2023/11/25 10:28:09;;;;;;;0.40;0.40;;;;;;;3.86;100.00;98841.31;5095520;28;20046;-59
2023/11/25 10:30:36;;;;;;;0.40;0.40;;;;;;;3.84;100.00;98832.72;5094206;28;20134;-59
2023/11/25 10:33:04;;;;;;;0.50;0.50;;;;;;;3.85;100.00;98837.03;5094477;28;20134;-59
2023/11/25 10:35:31;;;;;;;0.47;0.47;;;;;;;3.80;100.00;98839.50;5100492;28;20052;-59
2023/11/25 10:38:03;;;;;;;0.40;0.40;;;;;;;3.82;100.00;98840.06;5093296;28;20464;-59
2023/11/25 10:40:32;;;;;;;0.40;0.40;;;;;;;3.65;100.00;98829.94;5095004;28;20051;-59
2023/11/25 10:43:04;;;;;;;0.52;0.52;;;;;;;3.72;100.00;98823.78;5096357;27;20067;-60
2023/11/25 10:45:40;;;;;;;0.40;0.40;;;;;;;3.77;100.00;98827.47;5092040;27;20293;-60
2023/11/25 10:48:10;;;;;;;0.60;0.60;;;;;;;3.80;100.00;98823.59;5099901;28;20445;-58
2023/11/25 10:50:42;;;;;;;0.40;0.40;;;;;;;3.74;100.00;98821.75;5085889;28;20551;-58
2023/11/25 10:53:15;;;;;;;0.50;0.50;;;;;;;3.73;100.00;98820.13;5089931;28;20055;-59
2023/11/25 10:55:49;;;;;;;0.45;0.45;;;;;;;3.87;100.00;98811.94;5091636;28;20071;-59
2023/11/25 10:58:19;;;;;;;0.50;0.50;;;;;;;4.10;100.00;98822.06;5089686;28;20132;-58
2023/11/25 11:00:52;;;;;;;0.50;0.50;;;;;;;4.14;100.00;98816.31;5094283;28;20445;-58
2023/11/25 11:03:23;;;;;;;0.40;0.40;;;;;;;3.97;100.00;98810.66;5086809;27;20158;-58
2023/11/25 11:05:56;;;;;;;0.40;0.40;;;;;;;3.91;100.00;98817.63;5090729;27;20055;-59
2023/11/25 11:08:25;;;;;;;0.50;0.50;;;;;;;3.89;100.00;98819.66;5089542;28;20579;-58
2023/11/25 11:10:56;;;;;;;0.45;0.45;;;;;;;3.82;100.00;98819.72;5090513;28;20545;-59
2023/11/25 11:13:31;;;;;;;0.50;0.50;;;;;;;3.92;100.00;98829.03;5093894;27;20043;-58
2023/11/25 11:16:00;;;;;;;0.50;0.50;;;;;;;4.01;100.00;98825.94;5092940;28;20450;-58
2023/11/25 11:18:35;;;;;;;0.50;0.50;;;;;;;4.06;100.00;98809.41;5089852;28;20477;-59
2023/11/25 11:21:03;;;;;;;0.40;0.40;;;;;;;4.04;100.00;98804.34;5086347;28;20483;-59
2023/11/25 11:23:32;;;;;;;0.47;0.47;;;;;;;4.08;100.00;98799.41;5090749;28;20039;-59
2023/11/25 11:26:07;;;;;;;0.50;0.50;;;;;;;4.17;100.00;98792.00;5086319;28;20140;-59
2023/11/25 11:28:43;;;;;;;0.40;0.40;;;;;;;4.31;100.00;98785.63;5094867;27;20570;-60
2023/11/25 11:31:36;;;;;;;0.52;0.52;;;;;;;4.71;100.00;98780.06;5094682;28;20489;-58
2023/11/25 11:34:03;;;;;;;0.40;0.40;;;;;;;4.67;100.00;98779.69;5094112;27;20044;-59
2023/11/25 11:36:30;;;;;;;0.30;0.30;;;;;;;4.52;100.00;98785.31;5094170;28;20198;-59
2023/11/25 11:38:57;;;;;;;0.38;0.38;;;;;;;4.48;100.00;98780.63;5092925;28;20518;-59